createdAt,value
2023-01-27T00:02:06.634Z,0.3
2023-01-27T00:07:38.655Z,0.3
2023-01-27T00:13:09.861Z,0.27
2023-01-27T00:18:41.467Z,0.36
2023-01-27T00:24:13.939Z,0.44
2023-01-27T00:29:45.183Z,0.27
2023-01-27T00:35:21.415Z,0.31
2023-01-27T00:40:53.191Z,0.74
2023-01-27T00:46:25.074Z,0.32
2023-01-27T00:51:56.405Z,0.31
2023-01-27T00:57:28.069Z,0.41
2023-01-27T01:03:00.230Z,0.24
2023-01-27T01:08:31.498Z,0.73
2023-01-27T01:14:03.247Z,0.9
2023-01-27T01:19:35.329Z,0.9
2023-01-27T01:25:06.945Z,0.9
2023-01-27T01:30:38.984Z,0.95
2023-01-27T01:36:14.552Z,0.9
2023-01-27T01:41:46.568Z,0.79
2023-01-27T01:47:17.984Z,0.78
2023-01-27T01:52:49.813Z,0.8
2023-01-27T01:58:21.778Z,0.76
2023-01-27T02:03:53.507Z,0.87
2023-01-27T02:09:24.890Z,0.91
2023-01-27T02:14:57.061Z,0.71
2023-01-27T02:20:28.768Z,0.95
2023-01-27T02:26:00.102Z,1.09
2023-01-27T02:31:32.275Z,1.07
2023-01-27T02:37:08.016Z,1.11
2023-01-27T02:42:39.814Z,0.95
2023-01-27T02:48:11.771Z,0.96
2023-01-27T02:53:43.543Z,1.0
2023-01-27T02:59:14.939Z,1.07
2023-01-27T03:04:46.894Z,1.06
2023-01-27T03:10:18.727Z,1.01
2023-01-27T03:15:51.167Z,0.92
2023-01-27T03:21:22.091Z,0.95
2023-01-27T03:26:53.524Z,0.88
2023-01-27T03:32:25.247Z,0.9
2023-01-27T03:38:02.296Z,0.91
2023-01-27T03:43:33.427Z,0.92
2023-01-27T03:49:05.142Z,0.96
2023-01-27T03:54:36.613Z,0.69
2023-01-27T04:00:09.346Z,0.54
2023-01-27T04:05:40.028Z,0.73
2023-01-27T04:11:12.085Z,0.74
2023-01-27T04:16:43.812Z,0.53
2023-01-27T04:22:15.158Z,0.83
2023-01-27T04:27:46.915Z,0.3
2023-01-27T04:33:18.644Z,0.6
2023-01-27T04:38:57.063Z,0.5
2023-01-27T04:44:28.799Z,0.51
2023-01-27T04:50:00.261Z,0.62
2023-01-27T04:55:31.924Z,0.62
2023-01-27T05:01:03.673Z,0.32
2023-01-27T05:06:35.717Z,-0.08
2023-01-27T05:12:07.112Z,0.0
2023-01-27T05:17:39.099Z,0.41
2023-01-27T05:23:10.846Z,0.19
2023-01-27T05:28:42.232Z,0.65
2023-01-27T05:34:14.249Z,0.54
2023-01-27T05:39:52.113Z,0.91
2023-01-27T05:45:24.306Z,1.08
2023-01-27T05:50:55.909Z,0.98
2023-01-27T05:56:27.452Z,0.98
2023-01-27T06:01:59.336Z,1.05
2023-01-27T06:07:31.298Z,1.16
2023-01-27T06:13:02.412Z,1.15
2023-01-27T06:18:34.188Z,1.18
2023-01-27T06:24:06.327Z,1.32
2023-01-27T06:29:37.851Z,1.25
2023-01-27T06:35:10.249Z,1.24
2023-01-27T06:40:45.521Z,1.3
2023-01-27T06:46:17.257Z,1.23
2023-01-27T06:51:49.021Z,1.16
2023-01-27T06:57:20.811Z,1.15
2023-01-27T07:02:53.417Z,1.07
2023-01-27T07:08:24.508Z,1.19
2023-01-27T07:13:56.225Z,1.08
2023-01-27T07:19:27.585Z,0.85
2023-01-27T07:24:59.780Z,0.96
2023-01-27T07:30:31.021Z,0.86
2023-01-27T07:36:02.747Z,1.04
2023-01-27T07:41:38.880Z,0.97
2023-01-27T07:47:10.986Z,1.05
2023-01-27T07:52:42.380Z,1.16
2023-01-27T07:58:14.342Z,1.24
2023-01-27T08:03:46.051Z,0.94
2023-01-27T08:09:17.920Z,0.81
2023-01-27T08:14:49.544Z,1.1
2023-01-27T08:20:21.258Z,0.96
2023-01-27T08:25:52.663Z,1.16
2023-01-27T08:31:25.026Z,0.97
2023-01-27T08:36:56.163Z,0.9
2023-01-27T08:42:34.259Z,1.08
2023-01-27T08:48:06.721Z,0.88
2023-01-27T08:53:38.214Z,0.9
2023-01-27T08:59:09.824Z,0.6
2023-01-27T09:04:41.535Z,0.74
2023-01-27T09:10:15.037Z,0.4
2023-01-27T09:15:44.599Z,0.26
2023-01-27T09:21:16.827Z,0.61
2023-01-27T09:26:48.238Z,0.27
2023-01-27T09:32:19.813Z,0.8
2023-01-27T09:37:51.667Z,0.75
2023-01-27T09:43:27.873Z,0.99
2023-01-27T09:48:59.708Z,0.74
2023-01-27T09:54:31.115Z,1.19
2023-01-27T10:00:02.858Z,1.04
2023-01-27T10:05:34.507Z,0.93
2023-01-27T10:11:06.344Z,1.22
2023-01-27T10:16:38.061Z,1.41
2023-01-27T10:22:09.919Z,1.58
2023-01-27T10:27:41.614Z,1.44
2023-01-27T10:33:13.156Z,1.3
2023-01-27T10:38:44.863Z,1.52
2023-01-27T10:44:21.251Z,1.6
2023-01-27T10:49:52.734Z,1.75
2023-01-27T10:55:24.656Z,1.97
2023-01-27T11:01:19.089Z,1.75
2023-01-27T11:06:28.108Z,1.78
2023-01-27T11:11:59.664Z,1.62
2023-01-27T11:17:31.394Z,1.84
2023-01-27T11:23:03.276Z,1.37
2023-01-27T11:28:35.081Z,1.54
2023-01-27T11:34:06.841Z,1.82
2023-01-27T11:39:38.642Z,1.85
2023-01-27T11:45:15.441Z,1.81
2023-01-27T11:50:46.485Z,1.93
2023-01-27T11:56:17.946Z,2.14
2023-01-27T12:01:49.696Z,2.04
2023-01-27T12:07:21.633Z,2.15
2023-01-27T12:12:53.224Z,2.14
2023-01-27T12:18:24.875Z,2.04
2023-01-27T12:23:56.849Z,1.86
2023-01-27T12:29:28.370Z,2.0
2023-01-27T12:35:00.033Z,1.88
2023-01-27T12:40:31.882Z,2.1
2023-01-27T12:46:09.858Z,1.64
2023-01-27T12:51:41.826Z,2.05
2023-01-27T12:57:13.492Z,1.82
2023-01-27T13:02:45.190Z,1.66
2023-01-27T13:08:16.747Z,2.18
2023-01-27T13:13:48.519Z,2.22
2023-01-27T13:19:20.274Z,2.04
2023-01-27T13:24:52.031Z,1.86
2023-01-27T13:30:23.775Z,2.02
2023-01-27T13:35:55.687Z,2.18
2023-01-27T13:41:27.532Z,2.12
2023-01-27T13:47:05.635Z,2.04
2023-01-27T13:52:37.120Z,2.09
2023-01-27T13:58:08.889Z,2.0
2023-01-27T14:03:40.785Z,2.13
2023-01-27T14:09:12.476Z,2.07
2023-01-27T14:14:57.243Z,1.98
2023-01-27T14:20:16.001Z,1.94
2023-01-27T14:25:47.729Z,2.05
2023-01-27T14:31:19.322Z,1.76
2023-01-27T14:36:50.937Z,2.16
2023-01-27T14:42:22.844Z,2.05
2023-01-27T14:47:59.307Z,1.91
2023-01-27T14:53:31.549Z,1.8
2023-01-27T14:59:03.290Z,2.07
2023-01-27T15:04:35.116Z,1.9
2023-01-27T15:10:06.724Z,1.89
2023-01-27T15:15:38.676Z,1.97
2023-01-27T15:21:10.402Z,2.06
2023-01-27T15:26:42.220Z,1.74
2023-01-27T15:32:14.024Z,1.92
2023-01-27T15:37:45.642Z,2.06
2023-01-27T15:43:17.712Z,1.82
2023-01-27T15:48:53.137Z,1.53
2023-01-27T15:54:24.859Z,2.2
2023-01-27T15:59:59.015Z,2.25
2023-01-27T16:05:28.774Z,2.11
2023-01-27T16:11:00.379Z,2.18
2023-01-27T16:16:32.148Z,2.08
2023-01-27T16:22:03.799Z,2.38
2023-01-27T16:27:35.284Z,2.03
2023-01-27T16:33:06.974Z,2.34
2023-01-27T16:38:39.054Z,2.38
2023-01-27T16:44:10.946Z,2.49
2023-01-27T16:49:46.572Z,2.35
2023-01-27T16:55:18.281Z,2.33
2023-01-27T17:00:50.344Z,2.38
2023-01-27T17:06:22.015Z,2.47
2023-01-27T17:11:53.527Z,2.46
2023-01-27T17:17:25.234Z,2.35
2023-01-27T17:22:57.200Z,2.35
2023-01-27T17:28:28.995Z,2.44
2023-01-27T17:34:01.198Z,2.23
2023-01-27T17:39:32.432Z,2.5
2023-01-27T17:45:04.447Z,2.46
2023-01-27T17:50:42.665Z,2.53
2023-01-27T17:56:14.231Z,2.57
2023-01-27T18:01:45.856Z,2.54
2023-01-27T18:07:17.836Z,2.64
2023-01-27T18:12:49.301Z,2.62
2023-01-27T18:18:21.754Z,2.54
2023-01-27T18:23:53.171Z,2.54
2023-01-27T18:29:24.718Z,2.55
2023-01-27T18:34:56.907Z,2.48
2023-01-27T18:40:28.313Z,2.47
2023-01-27T18:46:00.028Z,2.5
2023-01-27T18:51:38.224Z,2.52
2023-01-27T18:57:09.677Z,2.41
2023-01-27T19:02:41.843Z,2.35
2023-01-27T19:08:13.114Z,2.49
2023-01-27T19:13:44.840Z,2.52
2023-01-27T19:19:17.007Z,2.5
2023-01-27T19:24:48.577Z,2.52
2023-01-27T19:30:20.224Z,2.48
2023-01-27T19:35:51.716Z,2.54
2023-01-27T19:41:23.452Z,2.51
2023-01-27T19:46:55.772Z,2.53
2023-01-27T19:52:33.289Z,2.4
2023-01-27T19:58:05.300Z,2.52
2023-01-27T20:03:37.092Z,2.5
2023-01-27T20:09:08.947Z,2.53
2023-01-27T20:14:40.179Z,2.56
2023-01-27T20:20:12.644Z,2.56
2023-01-27T20:25:43.941Z,2.53
2023-01-27T20:31:15.294Z,2.59
2023-01-27T20:36:47.385Z,2.57
2023-01-27T20:42:19.104Z,2.58
2023-01-27T20:47:51.050Z,2.56
2023-01-27T20:53:26.982Z,2.55
2023-01-27T20:58:58.847Z,2.56
2023-01-27T21:04:30.127Z,2.53
2023-01-27T21:10:01.763Z,2.58
2023-01-27T21:15:33.499Z,2.53
2023-01-27T21:21:05.256Z,2.52
2023-01-27T21:26:37.340Z,2.53
2023-01-27T21:32:08.729Z,2.58
2023-01-27T21:37:41.066Z,2.52
2023-01-27T21:43:12.435Z,2.61
2023-01-27T21:48:43.934Z,2.61
2023-01-27T21:54:20.653Z,2.41
2023-01-27T21:59:51.758Z,2.37
2023-01-27T22:05:23.796Z,2.49
2023-01-27T22:10:55.244Z,2.17
2023-01-27T22:16:27.267Z,1.73
2023-01-27T22:21:59.013Z,1.94
2023-01-27T22:27:30.381Z,2.02
2023-01-27T22:33:02.224Z,1.95
2023-01-27T22:38:33.833Z,1.64
2023-01-27T22:44:05.489Z,1.89
2023-01-27T22:49:37.451Z,2.2
2023-01-27T22:55:15.651Z,2.24
2023-01-27T23:00:47.104Z,2.39
2023-01-27T23:06:18.905Z,2.43
2023-01-27T23:11:50.865Z,2.27
2023-01-27T23:17:22.580Z,2.28
2023-01-27T23:22:54.161Z,2.38
2023-01-27T23:28:25.947Z,2.23
2023-01-27T23:33:57.737Z,2.58
2023-01-27T23:39:29.145Z,2.52
2023-01-27T23:45:02.018Z,2.58
2023-01-27T23:50:32.616Z,2.53
2023-01-27T23:56:09.025Z,2.41
